UAL571 PHNL-PHOG
Flight info
| Callsign | UAL571 |
|---|---|
| Flight time | 0h 22m |
| Altitude | 15000 |
| Route | PALAY3 LNY CAMPS4 |
| Aircraft | B738/M-SDE2E3FGHIRWXY/LB1 |
Departure
| Time | 2026-04-24 01:33 |
|---|---|
| Airport | Daniel K. Inouye International Airport (PHNL) |
Arrival
| Time | 2026-04-24 01:55 |
|---|---|
| Airport | Kahului International Airport (PHOG) |
| Time | Latitude | Longitude | Altitude | Speed | Heading |
|---|---|---|---|---|---|
| 2026-04-24 01:08 | 21.32933 | -157.91745 | 23 ft | 0 kts | 70° |
| 2026-04-24 01:19 | 21.32927 | -157.91764 | 28 ft | 3 kts | 70° |
| 2026-04-24 01:19 | 21.32920 | -157.91785 | 27 ft | 3 kts | 70° |
| 2026-04-24 01:19 | 21.32913 | -157.91806 | 24 ft | 3 kts | 66° |
| 2026-04-24 01:20 | 21.32914 | -157.91824 | 25 ft | 3 kts | 130° |
| 2026-04-24 01:20 | 21.32927 | -157.91832 | 28 ft | 0 kts | 185° |
| 2026-04-24 01:23 | 21.32922 | -157.91833 | 28 ft | 3 kts | 185° |
| 2026-04-24 01:23 | 21.32873 | -157.91838 | 23 ft | 10 kts | 185° |
| 2026-04-24 01:23 | 21.32801 | -157.91850 | 23 ft | 11 kts | 205° |
| 2026-04-24 01:24 | 21.32772 | -157.91917 | 23 ft | 11 kts | 268° |
| 2026-04-24 01:24 | 21.32772 | -157.92005 | 23 ft | 12 kts | 270° |
| 2026-04-24 01:24 | 21.32772 | -157.92100 | 23 ft | 13 kts | 270° |
| 2026-04-24 01:24 | 21.32772 | -157.92199 | 23 ft | 14 kts | 270° |
| 2026-04-24 01:25 | 21.32772 | -157.92303 | 23 ft | 14 kts | 270° |
| 2026-04-24 01:25 | 21.32772 | -157.92406 | 23 ft | 14 kts | 270° |
| 2026-04-24 01:25 | 21.32773 | -157.92519 | 23 ft | 16 kts | 270° |
| 2026-04-24 01:25 | 21.32774 | -157.92647 | 23 ft | 18 kts | 269° |
| 2026-04-24 01:26 | 21.32758 | -157.92751 | 23 ft | 5 kts | 252° |
| 2026-04-24 01:26 | 21.32756 | -157.92757 | 23 ft | 4 kts | 252° |
| 2026-04-24 01:26 | 21.32742 | -157.92829 | 23 ft | 13 kts | 267° |
| 2026-04-24 01:26 | 21.32742 | -157.92937 | 23 ft | 16 kts | 270° |
| 2026-04-24 01:27 | 21.32741 | -157.93035 | 23 ft | 10 kts | 269° |
| 2026-04-24 01:27 | 21.32741 | -157.93103 | 23 ft | 7 kts | 270° |
| 2026-04-24 01:27 | 21.32741 | -157.93108 | 23 ft | 0 kts | 270° |
| 2026-04-24 01:27 | 21.32741 | -157.93109 | 23 ft | 0 kts | 270° |
| 2026-04-24 01:28 | 21.32741 | -157.93122 | 23 ft | 5 kts | 270° |
| 2026-04-24 01:28 | 21.32740 | -157.93216 | 23 ft | 20 kts | 270° |
| 2026-04-24 01:28 | 21.32741 | -157.93380 | 23 ft | 22 kts | 270° |
| 2026-04-24 01:28 | 21.32742 | -157.93533 | 24 ft | 18 kts | 270° |
| 2026-04-24 01:29 | 21.32742 | -157.93666 | 24 ft | 18 kts | 270° |
| 2026-04-24 01:29 | 21.32743 | -157.93725 | 24 ft | 0 kts | 270° |
| 2026-04-24 01:30 | 21.32743 | -157.93754 | 24 ft | 10 kts | 269° |
| 2026-04-24 01:30 | 21.32741 | -157.93809 | 24 ft | 0 kts | 268° |
| 2026-04-24 01:30 | 21.32741 | -157.93811 | 24 ft | 0 kts | 268° |
| 2026-04-24 01:30 | 21.32741 | -157.93814 | 24 ft | 0 kts | 268° |
| 2026-04-24 01:31 | 21.32741 | -157.93817 | 24 ft | 0 kts | 268° |
| 2026-04-24 01:31 | 21.32741 | -157.93821 | 24 ft | 2 kts | 268° |
| 2026-04-24 01:31 | 21.32739 | -157.93890 | 24 ft | 13 kts | 268° |
| 2026-04-24 01:31 | 21.32739 | -157.93968 | 24 ft | 10 kts | 271° |
| 2026-04-24 01:32 | 21.32723 | -157.94045 | 24 ft | 12 kts | 240° |
| 2026-04-24 01:32 | 21.32650 | -157.94117 | 27 ft | 18 kts | 212° |
| 2026-04-24 01:32 | 21.32544 | -157.94145 | 27 ft | 16 kts | 146° |
| 2026-04-24 01:32 | 21.32526 | -157.94000 | 24 ft | 44 kts | 89° |
| 2026-04-24 01:33 | 21.32529 | -157.93325 | 26 ft | 135 kts | 90° |
| 2026-04-24 01:33 | 21.32525 | -157.92070 | 308 ft | 191 kts | 89° |
| 2026-04-24 01:33 | 21.32371 | -157.90581 | 1110 ft | 212 kts | 102° |
| 2026-04-24 01:33 | 21.31643 | -157.89110 | 1804 ft | 237 kts | 131° |
| 2026-04-24 01:34 | 21.30160 | -157.88292 | 2501 ft | 247 kts | 163° |
| 2026-04-24 01:34 | 21.28452 | -157.87881 | 3182 ft | 256 kts | 164° |
| 2026-04-24 01:34 | 21.26684 | -157.87468 | 3847 ft | 266 kts | 164° |
| 2026-04-24 01:34 | 21.24865 | -157.87007 | 4537 ft | 268 kts | 164° |
| 2026-04-24 01:35 | 21.23031 | -157.86542 | 5254 ft | 275 kts | 165° |
| 2026-04-24 01:35 | 21.21156 | -157.86052 | 5979 ft | 279 kts | 163° |
| 2026-04-24 01:35 | 21.19260 | -157.85548 | 6713 ft | 282 kts | 164° |
| 2026-04-24 01:35 | 21.17348 | -157.85037 | 7402 ft | 283 kts | 165° |
| 2026-04-24 01:36 | 21.15434 | -157.84509 | 8131 ft | 285 kts | 165° |
| 2026-04-24 01:36 | 21.13495 | -157.83963 | 8858 ft | 292 kts | 164° |
| 2026-04-24 01:36 | 21.11509 | -157.83393 | 9625 ft | 299 kts | 165° |
| 2026-04-24 01:36 | 21.09471 | -157.82799 | 10296 ft | 310 kts | 164° |
| 2026-04-24 01:37 | 21.07331 | -157.82169 | 10761 ft | 327 kts | 164° |
| 2026-04-24 01:37 | 21.05092 | -157.81508 | 11238 ft | 340 kts | 164° |
| 2026-04-24 01:37 | 21.02785 | -157.80792 | 11716 ft | 350 kts | 159° |
| 2026-04-24 01:37 | 21.00749 | -157.79359 | 12181 ft | 356 kts | 131° |
| 2026-04-24 01:38 | 20.99515 | -157.77070 | 12690 ft | 359 kts | 103° |
| 2026-04-24 01:38 | 20.98939 | -157.74459 | 13236 ft | 364 kts | 99° |
| 2026-04-24 01:38 | 20.98334 | -157.71800 | 13742 ft | 371 kts | 101° |
| 2026-04-24 01:38 | 20.97667 | -157.69109 | 14220 ft | 377 kts | 102° |
| 2026-04-24 01:39 | 20.96949 | -157.66399 | 14674 ft | 380 kts | 104° |
| 2026-04-24 01:39 | 20.96199 | -157.63697 | 14949 ft | 385 kts | 104° |
| 2026-04-24 01:39 | 20.95402 | -157.60905 | 14976 ft | 395 kts | 104° |
| 2026-04-24 01:39 | 20.94583 | -157.58076 | 14990 ft | 412 kts | 105° |
| 2026-04-24 01:40 | 20.93713 | -157.55098 | 14981 ft | 420 kts | 104° |
| 2026-04-24 01:40 | 20.92834 | -157.52109 | 14978 ft | 422 kts | 105° |
| 2026-04-24 01:40 | 20.91947 | -157.49101 | 14976 ft | 425 kts | 105° |
| 2026-04-24 01:40 | 20.91056 | -157.46079 | 14971 ft | 426 kts | 105° |
| 2026-04-24 01:41 | 20.90164 | -157.43056 | 14966 ft | 426 kts | 105° |
| 2026-04-24 01:41 | 20.89271 | -157.40030 | 14971 ft | 426 kts | 105° |
| 2026-04-24 01:41 | 20.88382 | -157.37014 | 14973 ft | 426 kts | 105° |
| 2026-04-24 01:41 | 20.87492 | -157.33997 | 14982 ft | 424 kts | 105° |
| 2026-04-24 01:42 | 20.86605 | -157.30992 | 14980 ft | 423 kts | 106° |
| 2026-04-24 01:42 | 20.85718 | -157.27992 | 14989 ft | 423 kts | 105° |
| 2026-04-24 01:42 | 20.84846 | -157.25045 | 14985 ft | 407 kts | 106° |
| 2026-04-24 01:42 | 20.84009 | -157.22223 | 14990 ft | 388 kts | 105° |
| 2026-04-24 01:43 | 20.83214 | -157.19541 | 14998 ft | 370 kts | 105° |
| 2026-04-24 01:43 | 20.82455 | -157.16979 | 15003 ft | 353 kts | 105° |
| 2026-04-24 01:43 | 20.81724 | -157.14513 | 15019 ft | 345 kts | 105° |
| 2026-04-24 01:43 | 20.81012 | -157.12109 | 15021 ft | 334 kts | 105° |
| 2026-04-24 01:44 | 20.80324 | -157.09787 | 15004 ft | 321 kts | 105° |
| 2026-04-24 01:44 | 20.79656 | -157.07534 | 14654 ft | 320 kts | 105° |
| 2026-04-24 01:44 | 20.78984 | -157.05263 | 14077 ft | 321 kts | 105° |
| 2026-04-24 01:44 | 20.78309 | -157.02988 | 13463 ft | 320 kts | 105° |
| 2026-04-24 01:45 | 20.77636 | -157.00720 | 12845 ft | 320 kts | 106° |
| 2026-04-24 01:45 | 20.76962 | -156.98457 | 12243 ft | 319 kts | 106° |
| 2026-04-24 01:45 | 20.76298 | -156.96202 | 11642 ft | 318 kts | 105° |
| 2026-04-24 01:45 | 20.75672 | -156.93942 | 11104 ft | 315 kts | 105° |
| 2026-04-24 01:46 | 20.75070 | -156.91713 | 10650 ft | 310 kts | 105° |
| 2026-04-24 01:46 | 20.74479 | -156.89514 | 10193 ft | 306 kts | 105° |
| 2026-04-24 01:46 | 20.73896 | -156.87348 | 9693 ft | 302 kts | 105° |
| 2026-04-24 01:46 | 20.73316 | -156.85205 | 9186 ft | 298 kts | 105° |
| 2026-04-24 01:47 | 20.72743 | -156.83091 | 8688 ft | 294 kts | 106° |
| 2026-04-24 01:47 | 20.72184 | -156.81036 | 8273 ft | 289 kts | 105° |
| 2026-04-24 01:47 | 20.71630 | -156.79002 | 7891 ft | 282 kts | 106° |
| 2026-04-24 01:47 | 20.71089 | -156.77015 | 7530 ft | 276 kts | 106° |
| 2026-04-24 01:48 | 20.70559 | -156.75067 | 7175 ft | 270 kts | 105° |
| 2026-04-24 01:48 | 20.70036 | -156.73150 | 6812 ft | 265 kts | 106° |
| 2026-04-24 01:48 | 20.69525 | -156.71279 | 6451 ft | 261 kts | 106° |
| 2026-04-24 01:48 | 20.69015 | -156.69413 | 6090 ft | 263 kts | 106° |
| 2026-04-24 01:49 | 20.68501 | -156.67531 | 5733 ft | 265 kts | 105° |
| 2026-04-24 01:49 | 20.67984 | -156.65630 | 5355 ft | 268 kts | 105° |
| 2026-04-24 01:49 | 20.67463 | -156.63709 | 4992 ft | 270 kts | 105° |
| 2026-04-24 01:49 | 20.66945 | -156.61806 | 4627 ft | 271 kts | 105° |
| 2026-04-24 01:50 | 20.66431 | -156.59866 | 4273 ft | 270 kts | 101° |
| 2026-04-24 01:50 | 20.66490 | -156.57936 | 4023 ft | 252 kts | 70° |
| 2026-04-24 01:50 | 20.67339 | -156.56413 | 3991 ft | 231 kts | 48° |
| 2026-04-24 01:50 | 20.68543 | -156.55326 | 3977 ft | 225 kts | 30° |
| 2026-04-24 01:51 | 20.69970 | -156.54645 | 3981 ft | 226 kts | 21° |
| 2026-04-24 01:51 | 20.71444 | -156.54053 | 4001 ft | 226 kts | 21° |
| 2026-04-24 01:51 | 20.72916 | -156.53465 | 3996 ft | 224 kts | 21° |
| 2026-04-24 01:51 | 20.74339 | -156.52890 | 3926 ft | 215 kts | 21° |
| 2026-04-24 01:52 | 20.75740 | -156.52325 | 3663 ft | 216 kts | 21° |
| 2026-04-24 01:52 | 20.77150 | -156.51753 | 3343 ft | 219 kts | 23° |
| 2026-04-24 01:52 | 20.78585 | -156.51179 | 3063 ft | 220 kts | 23° |
| 2026-04-24 01:52 | 20.79942 | -156.50482 | 2906 ft | 212 kts | 31° |
| 2026-04-24 01:53 | 20.81116 | -156.49591 | 2641 ft | 204 kts | 36° |
| 2026-04-24 01:53 | 20.82229 | -156.48717 | 2333 ft | 194 kts | 35° |
| 2026-04-24 01:53 | 20.83325 | -156.47905 | 1951 ft | 189 kts | 36° |
| 2026-04-24 01:53 | 20.84373 | -156.47116 | 1534 ft | 179 kts | 36° |
| 2026-04-24 01:54 | 20.85315 | -156.46315 | 1219 ft | 168 kts | 37° |
| 2026-04-24 01:54 | 20.86238 | -156.45641 | 902 ft | 154 kts | 28° |
| 2026-04-24 01:54 | 20.87081 | -156.45027 | 624 ft | 145 kts | 34° |
| 2026-04-24 01:54 | 20.87868 | -156.44432 | 415 ft | 138 kts | 36° |
| 2026-04-24 01:55 | 20.88645 | -156.43836 | 159 ft | 135 kts | 32° |
| 2026-04-24 01:55 | 20.89413 | -156.43267 | 46 ft | 125 kts | 32° |
| 2026-04-24 01:55 | 20.89961 | -156.42858 | 42 ft | 65 kts | 35° |
| 2026-04-24 01:55 | 20.90191 | -156.42687 | 43 ft | 34 kts | 34° |
| 2026-04-24 01:56 | 20.90380 | -156.42548 | 45 ft | 28 kts | 34° |
| 2026-04-24 01:56 | 20.90488 | -156.42552 | 45 ft | 14 kts | 274° |
| 2026-04-24 01:56 | 20.90444 | -156.42652 | 42 ft | 17 kts | 230° |
| 2026-04-24 01:56 | 20.90334 | -156.42737 | 44 ft | 21 kts | 212° |
| 2026-04-24 01:57 | 20.90215 | -156.42823 | 43 ft | 21 kts | 215° |
| 2026-04-24 01:57 | 20.90081 | -156.42923 | 43 ft | 27 kts | 215° |
| 2026-04-24 01:57 | 20.89920 | -156.43043 | 44 ft | 28 kts | 215° |
| 2026-04-24 01:57 | 20.89765 | -156.43160 | 42 ft | 26 kts | 215° |
| 2026-04-24 01:58 | 20.89631 | -156.43261 | 43 ft | 22 kts | 215° |
| 2026-04-24 01:58 | 20.89508 | -156.43354 | 42 ft | 21 kts | 215° |
| 2026-04-24 01:58 | 20.89403 | -156.43433 | 43 ft | 11 kts | 216° |
| 2026-04-24 01:58 | 20.89345 | -156.43480 | 43 ft | 10 kts | 224° |
| 2026-04-24 01:59 | 20.89321 | -156.43548 | 44 ft | 10 kts | 275° |
| 2026-04-24 01:59 | 20.89357 | -156.43605 | 44 ft | 5 kts | 306° |
| 2026-04-24 01:59 | 20.89364 | -156.43616 | 44 ft | 0 kts | 305° |